PRK weather

Public forecast

Using degrees Celsius for public forecast. Weather courtesy of forecast.io.

Closest aviation weather report (METAR) to Prieska Airport

Report is more than 6 hours old.

Closest report is De Aar Military Airport, 82.7 nm (153.1 km) SE. Retrieved 2020/08/11 08:50 UTC (7 hours ago):

FADY 110850Z 32010KT CAVOK 14/M03 Q1021

Closest aviation forecast (TAF) to Prieska Airport

Closest forecast is Pierre Van Ryneveld Airport, 110.6 nm (204.8 km) NW. Retrieved 2020/08/11 12:00 UTC (4 hours ago):

TAF FAUP 111000Z 1112/1212 20010KT CAVOK TX20/1113Z TN01/1204Z BECMG 1200/1202 VRB03KT